Time;durP1;ratioP1;P1;durP2;ratioP2;P2;SDS_P1;SDS_P2;PMS_P1;PMS_P2;Temp;Humidity;BMP_temperature;BMP_pressure;BME280_temperature;BME280_humidity;BME280_pressure;Samples;Min_cycle;Max_cycle;Signal;HPM_P1;HPM_P2
2021/07/30 00:00:30;;;;;;;10.23;4.70;;;14.70;99.90;;;;;;6305224;22;20027;-81
2021/07/30 00:02:58;;;;;;;5.78;5.28;;;14.70;99.90;;;;;;6311501;22;20019;-81
2021/07/30 00:05:26;;;;;;;5.28;4.03;;;14.80;99.90;;;;;;6314827;22;20011;-81
2021/07/30 00:07:53;;;;;;;4.97;3.85;;;14.70;99.90;;;;;;6307720;22;20019;-81
2021/07/30 00:10:21;;;;;;;5.95;5.03;;;14.70;99.90;;;;;;6287436;22;20442;-81
2021/07/30 00:12:55;;;;;;;4.35;3.72;;;14.60;99.90;;;;;;6303428;22;20026;-81
2021/07/30 00:15:24;;;;;;;5.53;5.03;;;14.60;99.90;;;;;;6283532;22;20023;-81
2021/07/30 00:17:52;;;;;;;7.88;4.95;;;14.40;99.90;;;;;;6274928;22;20342;-81
2021/07/30 00:20:20;;;;;;;5.15;3.92;;;14.40;99.90;;;;;;6277946;22;20026;-81
2021/07/30 00:22:48;;;;;;;7.03;4.72;;;14.40;99.90;;;;;;6311742;22;20019;-81
2021/07/30 00:25:16;;;;;;;5.70;3.60;;;14.50;99.90;;;;;;6286386;22;20011;-81
2021/07/30 00:27:44;;;;;;;7.13;3.83;;;14.50;99.90;;;;;;6280226;22;20494;-81
2021/07/30 00:30:12;;;;;;;19.73;8.93;;;14.50;99.90;;;;;;6314199;22;20018;-81
2021/07/30 00:32:39;;;;;;;4.40;3.63;;;14.40;99.90;;;;;;6304144;22;20015;-81
2021/07/30 00:35:07;;;;;;;7.82;3.97;;;14.20;99.90;;;;;;6286079;22;20011;-81
2021/07/30 00:37:35;;;;;;;4.72;3.92;;;14.10;99.90;;;;;;6316833;22;20011;-81
2021/07/30 00:40:04;;;;;;;5.88;4.90;;;14.10;99.90;;;;;;6309290;22;20023;-81
2021/07/30 00:42:32;;;;;;;5.97;4.75;;;14.10;99.90;;;;;;6315617;22;20423;-81
2021/07/30 00:45:02;;;;;;;4.68;4.03;;;14.10;99.90;;;;;;6316361;22;20007;-81
2021/07/30 00:47:30;;;;;;;6.20;4.55;;;14.20;99.90;;;;;;6310020;22;20323;-81
2021/07/30 00:49:59;;;;;;;8.13;5.30;;;14.20;99.90;;;;;;6277564;22;20034;-81
2021/07/30 00:52:30;;;;;;;5.78;4.28;;;14.30;99.90;;;;;;6275660;22;20027;-81
2021/07/30 00:54:58;;;;;;;4.10;3.72;;;14.30;99.90;;;;;;6307444;22;20023;-81
2021/07/30 00:57:26;;;;;;;7.93;3.65;;;14.30;99.90;;;;;;6310731;22;20331;-81
2021/07/30 00:59:54;;;;;;;5.80;4.13;;;14.20;99.90;;;;;;6281948;22;20030;-81
2021/07/30 01:02:25;;;;;;;6.07;4.25;;;14.10;99.90;;;;;;6316293;22;20018;-81
2021/07/30 01:04:53;;;;;;;6.00;3.67;;;14.00;99.90;;;;;;6305109;22;20034;-86
2021/07/30 01:07:21;;;;;;;5.97;3.67;;;14.10;99.90;;;;;;6284586;22;20022;-87
2021/07/30 01:09:53;;;;;;;6.05;5.25;;;14.10;99.90;;;;;;6278147;22;20320;-76
2021/07/30 01:12:21;;;;;;;5.65;4.72;;;14.10;99.90;;;;;;6307030;22;20494;-77
2021/07/30 01:14:54;;;;;;;5.82;4.88;;;14.20;99.90;;;;;;6313671;22;20019;-77
2021/07/30 01:17:22;;;;;;;4.80;4.20;;;14.20;99.90;;;;;;6288876;22;20454;-77
2021/07/30 01:19:50;;;;;;;6.47;4.53;;;14.20;99.90;;;;;;6309387;22;20027;-77
2021/07/30 01:22:23;;;;;;;8.63;4.03;;;14.20;99.90;;;;;;6316000;22;20030;-77
2021/07/30 01:24:52;;;;;;;12.00;4.60;;;14.30;99.90;;;;;;6304017;22;20027;-77
2021/07/30 01:27:20;;;;;;;6.15;5.00;;;14.30;99.90;;;;;;6284388;22;20034;-77
2021/07/30 01:29:48;;;;;;;5.53;4.18;;;14.30;99.90;;;;;;6276410;22;20019;-77
2021/07/30 01:32:17;;;;;;;9.40;5.78;;;14.20;99.90;;;;;;6307344;22;20030;-77
2021/07/30 01:34:45;;;;;;;8.00;5.07;;;14.20;99.90;;;;;;6313738;22;20022;-77
2021/07/30 01:37:13;;;;;;;4.65;4.15;;;14.10;99.90;;;;;;6315798;22;20011;-77
2021/07/30 01:39:40;;;;;;;5.20;4.13;;;14.10;99.90;;;;;;6308901;22;20019;-77
2021/07/30 01:42:08;;;;;;;5.80;4.85;;;14.20;99.90;;;;;;6315352;22;20011;-77
2021/07/30 01:44:36;;;;;;;5.68;4.47;;;14.20;99.90;;;;;;6305344;22;20030;-77
2021/07/30 01:47:04;;;;;;;5.45;4.35;;;14.20;99.90;;;;;;6285390;22;20019;-77
2021/07/30 01:49:32;;;;;;;6.78;5.13;;;14.10;99.90;;;;;;6315621;22;20015;-77
2021/07/30 01:52:00;;;;;;;7.97;5.65;;;14.10;99.90;;;;;;6306572;22;20027;-77
2021/07/30 01:54:27;;;;;;;6.00;4.03;;;14.10;99.90;;;;;;6313961;22;20405;-77
2021/07/30 01:56:55;;;;;;;11.05;5.85;;;14.20;99.90;;;;;;6303908;22;20026;-77
2021/07/30 01:59:23;;;;;;;13.63;5.50;;;14.10;99.90;;;;;;6306118;22;20023;-77
2021/07/30 02:01:51;;;;;;;7.40;5.20;;;14.10;99.90;;;;;;6277174;22;20016;-77
2021/07/30 02:04:19;;;;;;;5.57;4.65;;;14.10;99.90;;;;;;6307023;22;20027;-77
2021/07/30 02:06:47;;;;;;;5.40;4.90;;;14.20;99.90;;;;;;6286310;22;20011;-77
2021/07/30 02:09:15;;;;;;;10.05;5.93;;;14.20;99.90;;;;;;6314621;22;20034;-77
2021/07/30 02:11:50;;;;;;;6.75;5.35;;;14.10;99.90;;;;;;6309080;22;20023;-77
2021/07/30 02:14:18;;;;;;;5.65;4.82;;;14.10;99.90;;;;;;6315170;22;20015;-77
2021/07/30 02:16:51;;;;;;;7.13;6.47;;;14.20;99.90;;;;;;6305052;22;20030;-77
2021/07/30 02:19:21;;;;;;;6.07;5.43;;;14.20;99.90;;;;;;6310595;22;20023;-77
2021/07/30 02:21:51;;;;;;;8.77;4.97;;;14.10;99.90;;;;;;6314747;22;20015;-77
2021/07/30 02:24:20;;;;;;;6.80;4.30;;;14.20;99.90;;;;;;6305775;22;20023;-77
2021/07/30 02:26:48;;;;;;;6.28;5.60;;;14.20;99.90;;;;;;6313408;22;20026;-77
2021/07/30 02:29:16;;;;;;;15.63;4.97;;;14.30;99.90;;;;;;6315531;22;20329;-77
2021/07/30 02:31:44;;;;;;;7.97;5.10;;;14.20;99.90;;;;;;6281395;22;20023;-77
2021/07/30 02:34:11;;;;;;;6.38;4.88;;;14.20;99.90;;;;;;6314896;22;20018;-77
2021/07/30 02:36:43;;;;;;;8.38;5.85;;;14.20;99.90;;;;;;6305114;22;20027;-77
2021/07/30 02:39:12;;;;;;;5.00;4.13;;;14.20;99.90;;;;;;6310905;22;20015;-77
2021/07/30 02:41:40;;;;;;;14.68;7.72;;;14.10;99.90;;;;;;6276073;22;20027;-77
2021/07/30 02:44:08;;;;;;;6.72;5.05;;;14.10;99.90;;;;;;6306812;22;20019;-77
2021/07/30 02:46:35;;;;;;;5.63;4.95;;;14.10;99.90;;;;;;6314063;22;20027;-77
2021/07/30 02:49:03;;;;;;;8.27;4.93;;;14.10;99.90;;;;;;6276571;22;20417;-77
2021/07/30 02:51:31;;;;;;;7.10;5.68;;;14.20;99.90;;;;;;6309564;22;20034;-77
2021/07/30 02:53:59;;;;;;;6.30;4.60;;;14.20;99.90;;;;;;6287775;22;20007;-77
2021/07/30 02:56:27;;;;;;;4.57;4.18;;;14.30;99.90;;;;;;6304536;22;20023;-77
2021/07/30 02:58:54;;;;;;;5.35;4.60;;;14.30;99.90;;;;;;6303532;22;20019;-77
2021/07/30 03:01:22;;;;;;;5.38;4.20;;;14.40;99.90;;;;;;6315066;22;20011;-77
2021/07/30 03:03:50;;;;;;;5.90;5.03;;;14.50;99.90;;;;;;6308944;22;20026;-77
2021/07/30 03:06:18;;;;;;;7.50;5.50;;;14.50;99.90;;;;;;6314888;22;20015;-77
2021/07/30 03:08:46;;;;;;;7.50;6.10;;;14.60;99.90;;;;;;6304506;22;20023;-77
2021/07/30 03:11:14;;;;;;;13.23;5.47;;;14.60;99.90;;;;;;6309258;22;20022;-77
2021/07/30 03:13:42;;;;;;;10.48;7.13;;;14.60;99.90;;;;;;6314833;22;20422;-77
2021/07/30 03:16:11;;;;;;;6.38;5.43;;;14.70;99.90;;;;;;6307093;22;20031;-77
2021/07/30 03:18:39;;;;;;;6.18;4.95;;;14.90;99.90;;;;;;6313323;22;20065;-77
2021/07/30 03:21:07;;;;;;;6.60;6.00;;;15.10;99.90;;;;;;6313807;22;20011;-77
2021/07/30 03:23:35;;;;;;;9.02;4.90;;;15.20;99.90;;;;;;6309139;22;20026;-77
2021/07/30 03:26:03;;;;;;;5.72;4.53;;;15.30;99.90;;;;;;6286056;22;20011;-77
2021/07/30 03:28:31;;;;;;;5.43;4.18;;;15.40;99.90;;;;;;6305712;22;20019;-77
2021/07/30 03:31:01;;;;;;;6.88;4.68;;;15.50;99.90;;;;;;6312343;22;20019;-80
2021/07/30 03:33:29;;;;;;;6.10;5.45;;;15.50;99.90;;;;;;6314918;22;20026;-77
2021/07/30 03:35:57;;;;;;;5.97;5.07;;;15.40;99.90;;;;;;6307615;22;20026;-77
2021/07/30 03:38:25;;;;;;;8.15;4.60;;;15.30;99.90;;;;;;6314623;22;20722;-77
2021/07/30 03:40:53;;;;;;;9.30;7.38;;;15.30;99.90;;;;;;6276066;22;20049;-77
2021/07/30 03:43:21;;;;;;;8.10;5.30;;;15.20;99.90;;;;;;6283110;22;20023;-78
2021/07/30 03:45:48;;;;;;;6.93;4.32;;;15.30;99.90;;;;;;6314429;22;20018;-77
2021/07/30 03:48:16;;;;;;;6.85;4.57;;;15.30;99.90;;;;;;6306345;22;20027;-77
2021/07/30 03:50:44;;;;;;;7.13;4.20;;;15.30;99.90;;;;;;6284698;22;20015;-77
2021/07/30 03:53:12;;;;;;;8.60;6.57;;;15.30;99.90;;;;;;6315147;22;20008;-77
2021/07/30 03:55:40;;;;;;;5.85;4.97;;;15.30;99.90;;;;;;6308207;22;20027;-77
2021/07/30 03:58:07;;;;;;;9.68;5.63;;;15.30;99.90;;;;;;6308052;22;20019;-77
2021/07/30 04:00:38;;;;;;;9.20;6.50;;;15.30;99.90;;;;;;6304914;22;20026;-77
2021/07/30 04:03:06;;;;;;;8.85;6.28;;;15.30;99.90;;;;;;6311562;22;20016;-77
2021/07/30 04:05:35;;;;;;;7.90;6.38;;;15.30;99.90;;;;;;6314402;22;20019;-77
2021/07/30 04:08:04;;;;;;;7.03;6.07;;;15.30;99.90;;;;;;6308009;22;20015;-77
2021/07/30 04:10:32;;;;;;;9.13;5.85;;;15.30;99.90;;;;;;6314978;22;20011;-77
2021/07/30 04:13:00;;;;;;;8.40;6.20;;;15.20;99.90;;;;;;6289491;22;20007;-77
2021/07/30 04:15:28;;;;;;;6.63;5.30;;;15.20;99.90;;;;;;6277153;22;20023;-77
2021/07/30 04:17:56;;;;;;;6.20;5.20;;;15.20;99.90;;;;;;6316431;22;20011;-78
2021/07/30 04:20:24;;;;;;;8.57;5.03;;;15.20;99.90;;;;;;6279756;22;20027;-77
2021/07/30 04:22:51;;;;;;;9.38;6.18;;;15.10;99.90;;;;;;6314365;22;20023;-79
2021/07/30 04:25:19;;;;;;;10.82;6.05;;;15.10;99.90;;;;;;6277809;22;20028;-78
2021/07/30 04:27:47;;;;;;;13.18;6.30;;;15.10;99.90;;;;;;6310412;22;20034;-78
2021/07/30 04:30:15;;;;;;;9.40;5.97;;;15.10;99.90;;;;;;6316230;22;20740;-78
2021/07/30 04:32:43;;;;;;;9.82;7.90;;;15.00;99.90;;;;;;6306296;22;20478;-78
2021/07/30 04:35:10;;;;;;;13.48;7.05;;;15.00;99.90;;;;;;6312843;22;20038;-78
2021/07/30 04:37:39;;;;;;;10.73;7.28;;;15.00;99.90;;;;;;6316793;22;20789;-77
2021/07/30 04:40:07;;;;;;;9.10;7.00;;;15.10;99.90;;;;;;6307535;22;20022;-77
2021/07/30 04:42:35;;;;;;;9.32;8.35;;;15.10;99.90;;;;;;6315350;22;20011;-77
2021/07/30 04:45:03;;;;;;;10.38;8.07;;;15.10;99.90;;;;;;6315267;22;20012;-77
2021/07/30 04:47:32;;;;;;;9.13;7.55;;;15.10;99.90;;;;;;6310900;22;20022;-77
2021/07/30 04:50:01;;;;;;;9.00;7.75;;;15.10;99.90;;;;;;6278503;22;20027;-77
2021/07/30 04:52:29;;;;;;;10.05;8.32;;;15.10;99.90;;;;;;6307128;22;20019;-77
2021/07/30 04:54:58;;;;;;;13.43;7.70;;;15.10;99.90;;;;;;6312469;22;20022;-77
2021/07/30 04:57:26;;;;;;;14.55;6.82;;;15.10;99.90;;;;;;6311879;22;20026;-77
2021/07/30 04:59:53;;;;;;;11.18;6.90;;;15.00;99.90;;;;;;6281988;22;20023;-77
2021/07/30 05:02:21;;;;;;;6.65;5.40;;;15.10;99.90;;;;;;6316255;22;20015;-77
2021/07/30 05:04:49;;;;;;;11.23;8.93;;;15.20;99.90;;;;;;6305223;22;20034;-77
2021/07/30 05:07:17;;;;;;;6.97;6.28;;;15.20;99.90;;;;;;6311993;22;20030;-77
2021/07/30 05:09:45;;;;;;;9.27;5.90;;;15.20;99.90;;;;;;6315516;22;20008;-77
2021/07/30 05:12:13;;;;;;;9.63;6.05;;;15.30;99.90;;;;;;6280026;22;20037;-77
2021/07/30 05:14:40;;;;;;;7.57;6.13;;;15.40;99.90;;;;;;6314426;22;20011;-77
2021/07/30 05:17:08;;;;;;;10.93;6.05;;;15.50;99.90;;;;;;6316209;22;20014;-77
2021/07/30 05:19:36;;;;;;;12.07;7.25;;;15.60;99.90;;;;;;6309590;22;20023;-77
2021/07/30 05:22:04;;;;;;;11.27;8.27;;;15.70;99.90;;;;;;6315596;22;20019;-77
2021/07/30 05:24:36;;;;;;;14.50;9.02;;;15.70;99.90;;;;;;6305463;22;20454;-77
2021/07/30 05:27:06;;;;;;;14.73;7.30;;;15.70;99.90;;;;;;6313136;22;20059;-77
2021/07/30 05:29:34;;;;;;;11.60;6.63;;;15.80;99.90;;;;;;6288666;22;20015;-77
2021/07/30 05:32:02;;;;;;;20.20;6.82;;;15.80;99.90;;;;;;6275617;22;20019;-78
2021/07/30 05:34:31;;;;;;;13.68;9.05;;;15.90;99.90;;;;;;6314988;22;20023;-77
2021/07/30 05:36:59;;;;;;;10.32;8.57;;;16.00;99.90;;;;;;6315565;22;20461;-78
2021/07/30 05:39:29;;;;;;;9.32;7.85;;;16.00;99.90;;;;;;6305284;22;20326;-78
2021/07/30 05:41:57;;;;;;;15.47;7.93;;;16.00;99.90;;;;;;6315624;22;20015;-78
2021/07/30 05:44:25;;;;;;;9.55;7.55;;;16.10;99.90;;;;;;6306592;22;20249;-78
2021/07/30 05:46:53;;;;;;;9.15;7.60;;;16.20;99.90;;;;;;6313179;22;20023;-78
2021/07/30 05:49:21;;;;;;;12.30;7.68;;;16.20;99.90;;;;;;6315644;22;20015;-78
2021/07/30 05:51:48;;;;;;;12.00;9.50;;;16.40;99.90;;;;;;6308862;22;20031;-78
2021/07/30 05:54:16;;;;;;;8.88;7.13;;;16.50;99.90;;;;;;6314581;22;20022;-78
2021/07/30 05:56:44;;;;;;;10.95;7.38;;;16.60;99.90;;;;;;6304829;22;20031;-78
2021/07/30 05:59:12;;;;;;;10.93;8.57;;;16.60;99.90;;;;;;6311417;22;20059;-78
2021/07/30 06:01:40;;;;;;;11.45;6.70;;;16.60;99.90;;;;;;6276848;22;20018;-79
2021/07/30 06:04:08;;;;;;;10.50;7.78;;;16.60;99.90;;;;;;6307047;22;20042;-79
2021/07/30 06:06:35;;;;;;;8.30;7.15;;;16.70;99.90;;;;;;6261541;22;20008;-79
2021/07/30 06:09:03;;;;;;;9.45;7.90;;;16.70;99.90;;;;;;6277331;22;20439;-78
2021/07/30 06:11:32;;;;;;;14.20;9.43;;;16.80;99.90;;;;;;6309688;22;20026;-79
2021/07/30 06:14:00;;;;;;;9.82;7.45;;;16.80;99.90;;;;;;6315224;22;20007;-79
2021/07/30 06:16:28;;;;;;;7.97;7.15;;;17.00;99.90;;;;;;6306680;22;20462;-79
2021/07/30 06:19:04;;;;;;;9.27;5.97;;;17.20;99.90;;;;;;6312235;22;20019;-79
2021/07/30 06:21:33;;;;;;;8.30;6.50;;;17.30;99.90;;;;;;6262591;22;20343;-78
2021/07/30 06:24:02;;;;;;;8.68;6.60;;;17.40;99.90;;;;;;6308049;22;20027;-79
2021/07/30 06:26:29;;;;;;;9.50;7.35;;;17.40;99.90;;;;;;6313858;22;20015;-79
2021/07/30 06:28:57;;;;;;;8.95;7.05;;;17.60;99.90;;;;;;6315132;22;20007;-79
2021/07/30 06:31:25;;;;;;;8.27;6.78;;;17.70;99.90;;;;;;6309477;22;20058;-79
2021/07/30 06:33:53;;;;;;;8.95;7.90;;;17.70;99.90;;;;;;6315204;22;20063;-78
2021/07/30 06:36:23;;;;;;;13.77;9.02;;;17.70;99.90;;;;;;6306160;22;20518;-79
2021/07/30 06:38:51;;;;;;;8.88;7.22;;;17.80;99.90;;;;;;6313005;22;20012;-79
2021/07/30 06:41:19;;;;;;;39.65;9.88;;;17.80;99.90;;;;;;6286481;22;20011;-78
2021/07/30 06:43:48;;;;;;;10.35;8.32;;;17.80;99.90;;;;;;6307928;22;20043;-80
2021/07/30 06:46:16;;;;;;;18.00;10.77;;;18.00;99.90;;;;;;6314847;22;20012;-80
2021/07/30 06:48:43;;;;;;;11.90;8.10;;;18.20;99.90;;;;;;6304821;22;20023;-80
2021/07/30 06:51:12;;;;;;;11.13;8.50;;;18.40;99.90;;;;;;6310665;22;20026;-80
2021/07/30 06:53:41;;;;;;;12.65;8.93;;;18.60;99.90;;;;;;6315124;22;20331;-80
2021/07/30 06:56:10;;;;;;;11.65;9.07;;;18.80;99.90;;;;;;6305591;22;20019;-80
2021/07/30 06:58:42;;;;;;;11.00;8.63;;;18.90;99.90;;;;;;6304913;22;20023;-80
2021/07/30 07:01:10;;;;;;;9.07;7.43;;;19.10;99.90;;;;;;6314355;22;20019;-80
2021/07/30 07:03:38;;;;;;;10.63;7.25;;;19.10;99.90;;;;;;6309467;22;20347;-80
2021/07/30 07:06:12;;;;;;;10.32;7.57;;;19.10;99.90;;;;;;6314870;22;20033;-80
2021/07/30 07:08:39;;;;;;;12.13;8.15;;;19.20;99.90;;;;;;6304536;22;20024;-80
2021/07/30 07:11:08;;;;;;;10.88;7.47;;;19.40;99.90;;;;;;6283131;22;20050;-80
2021/07/30 07:13:41;;;;;;;8.85;7.95;;;19.50;99.90;;;;;;6276582;22;20015;-80
2021/07/30 07:16:11;;;;;;;11.38;6.90;;;19.70;99.90;;;;;;6275778;22;20030;-80
2021/07/30 07:18:39;;;;;;;9.25;7.45;;;19.80;99.90;;;;;;6313506;22;20011;-80
2021/07/30 07:21:08;;;;;;;8.68;6.90;;;19.80;99.90;;;;;;6313779;22;20011;-80
2021/07/30 07:23:36;;;;;;;9.02;7.75;;;19.80;99.90;;;;;;6282544;22;20011;-80
2021/07/30 07:26:04;;;;;;;10.30;6.45;;;19.90;99.90;;;;;;6286968;22;20011;-80
2021/07/30 07:28:32;;;;;;;10.77;7.25;;;20.10;99.90;;;;;;6305374;22;20050;-79
2021/07/30 07:31:00;;;;;;;12.95;7.88;;;20.70;99.90;;;;;;6311619;22;20035;-81
2021/07/30 07:33:31;;;;;;;10.85;7.70;;;21.30;99.90;;;;;;6251232;22;20016;-80
2021/07/30 07:35:58;;;;;;;10.75;6.57;;;21.20;99.90;;;;;;6307025;22;20019;-80
2021/07/30 07:38:26;;;;;;;6.70;5.60;;;21.00;99.90;;;;;;6276179;22;20022;-80
2021/07/30 07:40:54;;;;;;;7.18;6.15;;;20.90;99.90;;;;;;6274573;22;20027;-79
2021/07/30 07:43:22;;;;;;;8.73;7.18;;;21.00;99.90;;;;;;6276507;22;20019;-79
2021/07/30 07:45:50;;;;;;;6.70;6.00;;;21.00;99.90;;;;;;6317051;22;20334;-79
2021/07/30 07:48:17;;;;;;;10.02;7.90;;;21.20;99.90;;;;;;6280875;22;20030;-79
2021/07/30 07:50:46;;;;;;;7.75;6.63;;;21.50;99.90;;;;;;6314932;22;20019;-79
2021/07/30 07:53:15;;;;;;;8.07;5.97;;;21.90;99.90;;;;;;6316956;22;20339;-79
2021/07/30 07:55:44;;;;;;;9.35;6.50;;;22.40;99.90;;;;;;6310019;22;20462;-79
2021/07/30 07:58:11;;;;;;;9.90;5.95;;;22.60;99.90;;;;;;6309969;22;20023;-80
2021/07/30 08:00:41;;;;;;;8.43;5.60;;;22.70;99.90;;;;;;6306200;22;20034;-79
2021/07/30 08:03:09;;;;;;;6.72;5.65;;;22.60;99.90;;;;;;6313286;22;20019;-79
2021/07/30 08:05:38;;;;;;;7.80;6.28;;;22.40;99.90;;;;;;6316213;22;20012;-79
2021/07/30 08:08:06;;;;;;;9.93;5.75;;;22.30;99.90;;;;;;6309459;22;20015;-81
2021/07/30 08:10:34;;;;;;;10.50;6.00;;;22.10;99.90;;;;;;6314433;22;20015;-79
2021/07/30 08:13:02;;;;;;;10.68;7.60;;;21.90;99.90;;;;;;6289483;22;20026;-79
2021/07/30 08:15:30;;;;;;;8.07;6.93;;;21.80;99.90;;;;;;6284150;22;20019;-79
2021/07/30 08:17:57;;;;;;;6.32;4.80;;;21.80;99.90;;;;;;6277601;22;20446;-79
2021/07/30 08:20:25;;;;;;;7.60;5.75;;;21.90;99.90;;;;;;6254862;22;20031;-79
2021/07/30 08:22:54;;;;;;;8.13;5.55;;;21.90;99.90;;;;;;6314332;22;20443;-80
2021/07/30 08:25:21;;;;;;;6.35;5.32;;;22.00;99.90;;;;;;6252369;22;20022;-80
2021/07/30 08:27:49;;;;;;;7.47;6.57;;;22.00;99.90;;;;;;6309639;22;20020;-81
2021/07/30 08:30:17;;;;;;;4.75;4.32;;;21.80;99.90;;;;;;6277531;22;20015;-80
2021/07/30 08:32:45;;;;;;;6.68;5.35;;;21.50;99.90;;;;;;6305980;22;20027;-81
2021/07/30 08:35:13;;;;;;;5.25;4.25;;;21.40;99.90;;;;;;6312007;22;20045;-81
2021/07/30 08:37:40;;;;;;;10.23;5.78;;;21.50;99.90;;;;;;6315788;22;20015;-81
2021/07/30 08:40:10;;;;;;;5.88;4.90;;;21.50;99.90;;;;;;6279707;22;20023;-79
2021/07/30 08:42:38;;;;;;;6.43;5.63;;;21.30;99.90;;;;;;6276760;22;20019;-80
2021/07/30 08:45:07;;;;;;;8.88;5.03;;;21.50;99.90;;;;;;6316309;22;20439;-81
2021/07/30 08:47:35;;;;;;;6.80;6.10;;;21.60;99.90;;;;;;6310806;22;20026;-81
2021/07/30 08:50:04;;;;;;;8.20;5.53;;;21.50;99.90;;;;;;6316018;22;20015;-80
2021/07/30 08:52:37;;;;;;;6.88;5.10;;;21.50;99.90;;;;;;6303082;22;20481;-80
2021/07/30 08:55:05;;;;;;;7.32;5.55;;;21.60;99.90;;;;;;6284585;22;20030;-81
2021/07/30 08:57:42;;;;;;;7.40;5.35;;;21.80;99.90;;;;;;6311289;22;20023;-80
2021/07/30 09:00:14;;;;;;;9.73;5.88;;;22.10;99.90;;;;;;6307719;22;20028;-79
2021/07/30 09:02:42;;;;;;;6.45;5.40;;;22.40;99.90;;;;;;6314760;22;20007;-79
2021/07/30 09:05:43;;;;;;;7.20;5.57;;;22.60;99.90;;;;;;6276855;22;20457;-79
2021/07/30 09:08:21;;;;;;;9.18;5.10;;;22.70;99.90;;;;;;6214176;22;20023;-79
2021/07/30 09:10:49;;;;;;;6.30;5.70;;;22.80;99.90;;;;;;6250581;22;20032;-80
2021/07/30 09:13:24;;;;;;;7.88;4.80;;;22.70;99.90;;;;;;6316124;22;20422;-81
2021/07/30 09:15:59;;;;;;;5.40;4.70;;;22.80;99.90;;;;;;6276929;22;20030;-80
2021/07/30 09:18:34;;;;;;;4.97;4.40;;;23.00;99.90;;;;;;6251957;22;20022;-80
2021/07/30 09:21:24;;;;;;;8.60;5.47;;;23.10;99.90;;;;;;6303839;22;20034;-80
2021/07/30 09:23:54;;;;;;;5.50;4.63;;;23.10;99.90;;;;;;6309519;22;20030;-79
2021/07/30 09:26:37;;;;;;;10.40;5.05;;;23.10;99.90;;;;;;6287836;22;20053;-80
2021/07/30 09:29:25;;;;;;;6.38;5.45;;;23.20;99.90;;;;;;6286902;22;20027;-80
2021/07/30 09:31:58;;;;;;;6.63;5.95;;;23.30;99.90;;;;;;6304380;22;20046;-80
2021/07/30 09:34:32;;;;;;;9.77;5.20;;;23.20;99.90;;;;;;6288412;22;20062;-80
2021/07/30 09:37:22;;;;;;;7.22;6.00;;;23.10;99.90;;;;;;6260382;22;20019;-79
2021/07/30 09:39:52;;;;;;;6.43;5.65;;;23.00;99.90;;;;;;6308504;22;20069;-80
2021/07/30 09:42:30;;;;;;;7.97;5.05;;;22.90;99.90;;;;;;6251778;22;20011;-81
2021/07/30 09:45:03;;;;;;;6.25;5.60;;;23.00;99.90;;;;;;6276107;22;20450;-81
2021/07/30 09:47:35;;;;;;;11.43;5.80;;;23.10;99.90;;;;;;6226556;22;20015;-81
2021/07/30 09:50:05;;;;;;;7.55;6.05;;;23.30;99.90;;;;;;6251614;22;20020;-81
2021/07/30 09:52:36;;;;;;;5.75;5.05;;;23.40;99.90;;;;;;6278741;22;20372;-81
2021/07/30 09:55:07;;;;;;;5.07;4.53;;;23.50;99.90;;;;;;6276048;22;20480;-80
2021/07/30 09:57:37;;;;;;;7.68;6.53;;;23.40;99.90;;;;;;6310666;22;20061;-81
2021/07/30 10:00:05;;;;;;;6.53;5.07;;;23.50;99.90;;;;;;6307904;22;20027;-81
2021/07/30 10:02:35;;;;;;;7.88;4.88;;;23.50;99.90;;;;;;6314562;22;20481;-81
2021/07/30 10:05:11;;;;;;;8.73;7.18;;;23.60;99.90;;;;;;6288351;22;20326;-81
2021/07/30 10:07:41;;;;;;;5.97;5.05;;;23.70;99.90;;;;;;6310423;22;20030;-81
2021/07/30 10:10:25;;;;;;;4.78;3.92;;;23.70;99.90;;;;;;6314834;22;20023;-81
2021/07/30 10:13:05;;;;;;;6.13;5.30;;;23.70;99.90;;;;;;6251439;22;20346;-81
2021/07/30 10:15:33;;;;;;;8.63;5.00;;;23.90;99.90;;;;;;6226062;22;20027;-80
2021/07/30 10:18:05;;;;;;;7.75;4.75;;;23.90;99.90;;;;;;6312537;22;20015;-80
2021/07/30 10:20:33;;;;;;;5.28;4.78;;;23.70;99.90;;;;;;6305250;22;20563;-80
2021/07/30 10:23:14;;;;;;;8.30;5.47;;;23.70;99.90;;;;;;6312593;22;20022;-81
2021/07/30 10:25:52;;;;;;;7.47;4.57;;;23.70;99.90;;;;;;6314818;22;20012;-81
2021/07/30 10:28:28;;;;;;;6.97;5.43;;;23.80;99.90;;;;;;6307273;22;20026;-80
2021/07/30 10:31:02;;;;;;;5.90;4.72;;;23.90;99.90;;;;;;6312333;22;20050;-82
2021/07/30 10:33:40;;;;;;;7.47;5.75;;;24.10;99.90;;;;;;6315473;22;20015;-81
2021/07/30 10:36:32;;;;;;;5.30;4.28;;;24.20;99.90;;;;;;6280785;22;20023;-81
2021/07/30 10:39:11;;;;;;;7.25;5.22;;;24.40;99.90;;;;;;6286286;22;20019;-81
2021/07/30 10:41:40;;;;;;;6.53;5.93;;;24.50;99.90;;;;;;6287559;22;20018;-81
2021/07/30 10:44:09;;;;;;;5.45;4.95;;;24.50;99.90;;;;;;6307564;22;20024;-81
2021/07/30 10:46:37;;;;;;;6.50;5.07;;;24.20;99.90;;;;;;6314064;22;20019;-81
2021/07/30 10:49:37;;;;;;;5.30;4.80;;;24.10;99.90;;;;;;6287994;22;20345;-82
2021/07/30 10:52:30;;;;;;;6.45;5.85;;;24.30;99.90;;;;;;6252347;22;20027;-82
2021/07/30 10:55:03;;;;;;;5.13;4.55;;;24.50;99.90;;;;;;6248944;22;20023;-83
2021/07/30 10:57:48;;;;;;;7.05;6.35;;;24.70;99.90;;;;;;6226752;22;20050;-89
2021/07/30 11:00:57;;;;;;;;;;;;;;;;;;;;;
2021/07/30 11:08:57;;;;;;;6.60;5.22;;;24.80;99.90;;;;;;6084329;23;20022;-87
2021/07/30 11:12:05;;;;;;;5.15;4.70;;;24.80;99.90;;;;;;6067849;23;20025;-88
2021/07/30 11:16:03;;;;;;;6.97;4.90;;;24.60;99.90;;;;;;6066939;23;20014;-87
2021/07/30 11:28:39;;;;;;;5.82;4.38;;;25.00;99.90;;;;;;6036675;23;20022;-87
2021/07/30 11:32:21;;;;;;;6.13;4.55;;;25.00;99.90;;;;;;6095901;23;20023;-87
2021/07/30 11:39:59;;;;;;;8.32;5.80;;;25.10;99.90;;;;;;6040102;23;20102;-83
2021/07/30 11:43:12;;;;;;;5.53;4.55;;;25.20;99.90;;;;;;6031621;23;20027;-82
2021/07/30 11:50:05;;;;;;;7.38;4.80;;;25.20;99.90;;;;;;6063517;23;20152;-88
2021/07/30 11:52:37;;;;;;;5.72;5.03;;;25.20;99.90;;;;;;6089633;23;20032;-87
2021/07/30 11:55:24;;;;;;;6.32;4.78;;;25.20;99.90;;;;;;6155288;23;20026;-82
2021/07/30 11:58:11;;;;;;;7.45;5.63;;;25.10;99.90;;;;;;6124177;23;20029;-82
2021/07/30 12:00:45;;;;;;;6.13;5.32;;;25.00;99.90;;;;;;6126602;23;20022;-82
2021/07/30 12:03:21;;;;;;;7.97;6.07;;;25.10;99.90;;;;;;6138716;23;20545;-82
2021/07/30 12:05:51;;;;;;;6.05;5.20;;;25.20;99.90;;;;;;6124618;23;20448;-81
2021/07/30 12:08:26;;;;;;;4.95;4.45;;;25.30;99.90;;;;;;6071997;23;20037;-82
2021/07/30 12:10:54;;;;;;;6.35;4.20;;;25.20;99.90;;;;;;6094374;23;20076;-88
2021/07/30 12:13:29;;;;;;;7.07;5.35;;;25.30;99.90;;;;;;6183213;23;20012;-88
2021/07/30 12:15:57;;;;;;;8.98;4.60;;;25.30;99.90;;;;;;6183377;23;20020;-88
2021/07/30 12:18:25;;;;;;;6.07;5.10;;;25.30;99.90;;;;;;6186918;23;20032;-87
2021/07/30 12:21:04;;;;;;;7.05;4.80;;;25.50;99.90;;;;;;6160297;23;20024;-87
2021/07/30 12:23:33;;;;;;;5.93;4.97;;;25.60;99.90;;;;;;6183407;23;20051;-88
2021/07/30 12:26:49;;;;;;;6.10;5.35;;;25.70;99.90;;;;;;6209865;22;20017;-87
2021/07/30 12:29:39;;;;;;;17.58;4.97;;;26.00;99.90;;;;;;6130763;23;20028;-87
2021/07/30 12:32:25;;;;;;;5.18;4.00;;;26.00;99.90;;;;;;6186882;23;20376;-88
2021/07/30 12:34:59;;;;;;;6.53;5.07;;;26.00;99.90;;;;;;6253474;22;20011;-88
2021/07/30 12:37:33;;;;;;;7.88;6.32;;;26.00;99.90;;;;;;6229493;22;20430;-87
2021/07/30 12:40:47;;;;;;;5.38;4.70;;;26.20;99.90;;;;;;6230849;22;20022;-88
2021/07/30 12:43:18;;;;;;;28.42;7.03;;;26.10;99.90;;;;;;6278247;22;20030;-87
2021/07/30 12:45:55;;;;;;;5.90;5.05;;;26.00;99.90;;;;;;6254564;22;20022;-87
2021/07/30 12:48:47;;;;;;;6.10;5.30;;;25.80;99.90;;;;;;6307974;22;20027;-88
2021/07/30 12:51:27;;;;;;;5.22;4.35;;;26.00;99.90;;;;;;6313615;22;20038;-88
2021/07/30 12:54:10;;;;;;;5.03;4.40;;;26.20;99.90;;;;;;6291301;22;20460;-88
2021/07/30 12:57:00;;;;;;;7.18;6.47;;;26.40;99.90;;;;;;6307111;22;20490;-87
2021/07/30 12:59:54;;;;;;;5.25;4.75;;;26.30;99.90;;;;;;6286071;22;20020;-87
2021/07/30 13:02:39;;;;;;;4.95;4.45;;;26.00;99.90;;;;;;6303840;22;20015;-87
2021/07/30 13:05:11;;;;;;;3.90;3.42;;;25.90;99.90;;;;;;6254401;22;20105;-87
2021/07/30 13:07:42;;;;;;;4.90;4.20;;;26.00;99.90;;;;;;6311704;22;20015;-87
2021/07/30 13:10:12;;;;;;;5.70;4.35;;;26.00;99.90;;;;;;6289218;22;20620;-87
2021/07/30 13:12:42;;;;;;;4.47;3.40;;;25.80;99.90;;;;;;6306731;22;20023;-87
2021/07/30 13:15:11;;;;;;;5.95;5.28;;;25.70;99.90;;;;;;6313254;22;20027;-88
2021/07/30 13:17:39;;;;;;;6.22;4.80;;;25.70;99.90;;;;;;6277964;22;20042;-88
2021/07/30 13:20:18;;;;;;;5.28;4.50;;;26.00;99.90;;;;;;6281980;22;20027;-87
2021/07/30 13:22:53;;;;;;;4.75;4.22;;;26.20;99.90;;;;;;6287818;22;20105;-87
2021/07/30 13:25:22;;;;;;;4.90;4.53;;;26.40;99.90;;;;;;6278667;22;20015;-87
2021/07/30 13:27:50;;;;;;;4.10;3.67;;;26.40;99.10;;;;;;6252696;22;20027;-86
2021/07/30 13:30:32;;;;;;;5.22;3.95;;;26.40;99.90;;;;;;6315628;22;20026;-87
2021/07/30 13:33:01;;;;;;;6.88;4.07;;;26.40;97.00;;;;;;6255196;22;20020;-87